Main page
METAR-TAF:

METAR-TAF

Airports :

Aérodrome de Dax - Seyresse

Dax, France

latitude: 43-41N, longitude: 001-04W, elevation: 32 m

Current weather observation

The report was made 24 minutes ago, at 23:00 UTC
Wind 3 kt from variable directions
Temperature 15°C
Humidity 72%
Pressure 996 hPa
Visibility 10 km or more

METAR: LFBY 222300Z AUTO VRB03KT 9999 // NSC 15/10 Q0996

Time: 01:24 (23:24 UTC)


TAF: missing

Weather observations and forecasts of more than 4000 airports (METAR and TAF reports).

The available stations are represented by yellow and red dots on the map.

Hover mouse over dot to see the name of the station.

Then click to see weather observations and forecasts.

To change the map : click on the green buttons with a black cross to zoom in, on the green button with a dash to zoom out, or on the green arrows for adjacent maps.


METAR-TAF: